Tiangang, China
Current Conditions -  °F | °C
As of 12:00 AM on Thursday 27 Nov 2014 (Local Time) from ZYCC Reporting Station
Broken Clouds Broken Clouds  
Wind Chill: 27°   Ceiling: 3000
Heat Index: 34°   Visibility: 6mi
Dew Point:   Wind: 9mph
Humidity: 32%   Direction: 300°WNW
Pressure: 30.09"   Gusts: NA
Location:  43.88°N, 126.95°E
Report Text: ZYCC 261600Z 30004MPS 9999 BKN030 01/M14 Q1019 NOSIG
Loading
Personal Weather Stations






























Interactive Weather Map New forecast layout! Learn more

10-Day Weather Forecast

Advertisements
Track Severe Weather on mobile